sensor_id;sensor_type;location;lat;lon;timestamp;pressure;altitude;pressure_sealevel;temperature;humidity
69247;BME280;56358;56.328;43.992;2023-09-18T00:00:22;101157.16;;;11.84;62.27
69247;BME280;56358;56.328;43.992;2023-09-18T00:02:22;101154.69;;;11.81;62.14
69247;BME280;56358;56.328;43.992;2023-09-18T00:04:24;101147.41;;;11.83;61.94
69247;BME280;56358;56.328;43.992;2023-09-18T00:06:24;101152.84;;;11.81;62.10
69247;BME280;56358;56.328;43.992;2023-09-18T00:08:25;100977.47;;;10.81;62.05
69247;BME280;56358;56.328;43.992;2023-09-18T00:10:26;101090.00;;;11.47;62.02
69247;BME280;56358;56.328;43.992;2023-09-18T00:12:27;101123.38;;;11.68;62.14
69247;BME280;56358;56.328;43.992;2023-09-18T00:14:27;101154.94;;;11.78;62.12
69247;BME280;56358;56.328;43.992;2023-09-18T00:16:28;101134.09;;;11.68;61.78
69247;BME280;56358;56.328;43.992;2023-09-18T00:18:29;101162.56;;;11.71;61.41
69247;BME280;56358;56.328;43.992;2023-09-18T00:20:29;101149.75;;;11.74;61.79
69247;BME280;56358;56.328;43.992;2023-09-18T00:22:30;101127.31;;;11.76;61.20
69247;BME280;56358;56.328;43.992;2023-09-18T00:24:31;101145.88;;;11.79;61.37
69247;BME280;56358;56.328;43.992;2023-09-18T00:26:32;101133.31;;;11.79;61.01
69247;BME280;56358;56.328;43.992;2023-09-18T00:28:33;101137.72;;;11.80;60.90
69247;BME280;56358;56.328;43.992;2023-09-18T00:30:33;101140.41;;;11.80;60.53
69247;BME280;56358;56.328;43.992;2023-09-18T00:32:35;101075.59;;;11.48;60.64
69247;BME280;56358;56.328;43.992;2023-09-18T00:34:35;101135.88;;;11.81;60.83
69247;BME280;56358;56.328;43.992;2023-09-18T00:36:36;101117.53;;;11.74;60.64
69247;BME280;56358;56.328;43.992;2023-09-18T00:38:37;101129.56;;;11.82;60.82
69247;BME280;56358;56.328;43.992;2023-09-18T00:40:37;101148.56;;;11.79;61.02
69247;BME280;56358;56.328;43.992;2023-09-18T00:42:38;101135.81;;;11.69;60.93
69247;BME280;56358;56.328;43.992;2023-09-18T00:44:39;101123.00;;;11.73;60.99
69247;BME280;56358;56.328;43.992;2023-09-18T00:46:41;101122.28;;;11.71;61.24
69247;BME280;56358;56.328;43.992;2023-09-18T00:48:42;101062.31;;;11.33;61.28
69247;BME280;56358;56.328;43.992;2023-09-18T00:50:46;101117.03;;;11.69;61.23
69247;BME280;56358;56.328;43.992;2023-09-18T00:52:47;101117.69;;;11.60;60.78
69247;BME280;56358;56.328;43.992;2023-09-18T00:54:49;101090.06;;;11.58;61.29
69247;BME280;56358;56.328;43.992;2023-09-18T00:56:52;101105.63;;;11.66;61.25
69247;BME280;56358;56.328;43.992;2023-09-18T00:58:54;101106.47;;;11.66;61.46
69247;BME280;56358;56.328;43.992;2023-09-18T01:00:55;101111.13;;;11.64;61.22
69247;BME280;56358;56.328;43.992;2023-09-18T01:02:56;101112.72;;;11.67;61.39
69247;BME280;56358;56.328;43.992;2023-09-18T01:04:57;101114.66;;;11.65;62.16
69247;BME280;56358;56.328;43.992;2023-09-18T01:06:59;101105.09;;;11.61;62.06
69247;BME280;56358;56.328;43.992;2023-09-18T01:09:02;101044.50;;;11.19;61.98
69247;BME280;56358;56.328;43.992;2023-09-18T01:11:37;101117.34;;;11.52;62.21
69247;BME280;56358;56.328;43.992;2023-09-18T01:16:55;101096.97;;;11.49;62.46
69247;BME280;56358;56.328;43.992;2023-09-18T01:18:56;101018.69;;;11.05;62.32
69247;BME280;56358;56.328;43.992;2023-09-18T01:20:57;101097.84;;;11.50;62.49
69247;BME280;56358;56.328;43.992;2023-09-18T01:22:58;101088.94;;;11.49;62.39
69247;BME280;56358;56.328;43.992;2023-09-18T01:24:58;101087.94;;;11.50;62.08
69247;BME280;56358;56.328;43.992;2023-09-18T01:26:59;101094.63;;;11.45;62.30
69247;BME280;56358;56.328;43.992;2023-09-18T01:29:00;101085.47;;;11.47;62.49
69247;BME280;56358;56.328;43.992;2023-09-18T01:31:00;101052.44;;;11.34;62.22
69247;BME280;56358;56.328;43.992;2023-09-18T01:33:02;101009.88;;;11.03;62.39
69247;BME280;56358;56.328;43.992;2023-09-18T01:35:05;101072.91;;;11.48;62.25
69247;BME280;56358;56.328;43.992;2023-09-18T01:37:09;101068.72;;;11.44;62.15
69247;BME280;56358;56.328;43.992;2023-09-18T01:39:12;101074.97;;;11.44;62.04
69247;BME280;56358;56.328;43.992;2023-09-18T01:41:12;101057.56;;;11.37;62.11
69247;BME280;56358;56.328;43.992;2023-09-18T01:43:13;101075.53;;;11.36;62.50
69247;BME280;56358;56.328;43.992;2023-09-18T01:45:14;101060.00;;;11.16;62.48
69247;BME280;56358;56.328;43.992;2023-09-18T01:47:18;101066.69;;;11.34;62.37
69247;BME280;56358;56.328;43.992;2023-09-18T01:49:35;101016.75;;;10.95;62.26
69247;BME280;56358;56.328;43.992;2023-09-18T01:51:35;101080.34;;;11.31;62.08
69247;BME280;56358;56.328;43.992;2023-09-18T01:53:36;100937.06;;;10.58;61.75
69247;BME280;56358;56.328;43.992;2023-09-18T01:55:37;101065.09;;;11.32;61.33
69247;BME280;56358;56.328;43.992;2023-09-18T01:57:37;101058.22;;;11.28;61.34
69247;BME280;56358;56.328;43.992;2023-09-18T01:59:38;101067.16;;;11.28;61.43
69247;BME280;56358;56.328;43.992;2023-09-18T02:01:39;101068.00;;;11.29;60.91
69247;BME280;56358;56.328;43.992;2023-09-18T02:03:39;101062.53;;;11.30;60.98
69247;BME280;56358;56.328;43.992;2023-09-18T02:05:42;101054.59;;;11.29;60.87
69247;BME280;56358;56.328;43.992;2023-09-18T02:07:42;101052.66;;;11.31;60.38
69247;BME280;56358;56.328;43.992;2023-09-18T02:09:43;101058.88;;;11.31;60.70
69247;BME280;56358;56.328;43.992;2023-09-18T02:11:47;101054.06;;;11.23;60.58
69247;BME280;56358;56.328;43.992;2023-09-18T02:13:50;101047.72;;;11.24;60.81
69247;BME280;56358;56.328;43.992;2023-09-18T02:15:53;101028.00;;;11.13;60.53
69247;BME280;56358;56.328;43.992;2023-09-18T02:17:54;101040.53;;;11.25;60.06
69247;BME280;56358;56.328;43.992;2023-09-18T02:19:55;101042.13;;;11.28;60.62
69247;BME280;56358;56.328;43.992;2023-09-18T02:21:56;101050.19;;;11.28;60.80
69247;BME280;56358;56.328;43.992;2023-09-18T02:23:58;101046.41;;;11.30;60.77
69247;BME280;56358;56.328;43.992;2023-09-18T02:25:59;101001.81;;;11.16;60.30
69247;BME280;56358;56.328;43.992;2023-09-18T02:27:59;100997.41;;;11.15;60.58
69247;BME280;56358;56.328;43.992;2023-09-18T02:30:00;101041.69;;;11.34;60.74
69247;BME280;56358;56.328;43.992;2023-09-18T02:32:01;101033.75;;;11.32;60.97
69247;BME280;56358;56.328;43.992;2023-09-18T02:34:01;101015.69;;;11.34;61.23
69247;BME280;56358;56.328;43.992;2023-09-18T02:36:02;100985.81;;;11.15;61.34
69247;BME280;56358;56.328;43.992;2023-09-18T02:38:03;101024.75;;;11.33;61.81
69247;BME280;56358;56.328;43.992;2023-09-18T02:40:04;101027.44;;;11.33;62.03
69247;BME280;56358;56.328;43.992;2023-09-18T02:42:05;101018.84;;;11.28;62.28
69247;BME280;56358;56.328;43.992;2023-09-18T02:44:06;101025.94;;;11.29;62.08
69247;BME280;56358;56.328;43.992;2023-09-18T02:46:08;101017.97;;;11.28;62.53
69247;BME280;56358;56.328;43.992;2023-09-18T02:48:08;101016.16;;;11.28;62.67
69247;BME280;56358;56.328;43.992;2023-09-18T02:50:09;101009.72;;;11.31;62.62
69247;BME280;56358;56.328;43.992;2023-09-18T02:52:11;101024.09;;;11.30;62.68
69247;BME280;56358;56.328;43.992;2023-09-18T02:54:12;101012.72;;;11.26;62.78
69247;BME280;56358;56.328;43.992;2023-09-18T02:56:13;100942.59;;;10.94;62.61
69247;BME280;56358;56.328;43.992;2023-09-18T02:58:14;100989.13;;;11.18;62.90
69247;BME280;56358;56.328;43.992;2023-09-18T03:00:16;101008.00;;;11.30;62.85
69247;BME280;56358;56.328;43.992;2023-09-18T03:02:17;101009.59;;;11.32;63.20
69247;BME280;56358;56.328;43.992;2023-09-18T03:04:18;100998.00;;;11.32;62.94
69247;BME280;56358;56.328;43.992;2023-09-18T03:06:19;100931.22;;;10.90;63.47
69247;BME280;56358;56.328;43.992;2023-09-18T03:08:19;101002.63;;;11.30;63.46
69247;BME280;56358;56.328;43.992;2023-09-18T03:10:20;100999.09;;;11.29;63.88
69247;BME280;56358;56.328;43.992;2023-09-18T03:12:21;100988.44;;;11.28;64.16
69247;BME280;56358;56.328;43.992;2023-09-18T03:14:22;100987.47;;;11.29;64.32
69247;BME280;56358;56.328;43.992;2023-09-18T03:16:23;100987.47;;;11.29;64.19
69247;BME280;56358;56.328;43.992;2023-09-18T03:18:24;100968.28;;;11.22;64.17
69247;BME280;56358;56.328;43.992;2023-09-18T03:20:25;100972.34;;;11.28;64.14
69247;BME280;56358;56.328;43.992;2023-09-18T03:22:26;100976.44;;;11.33;64.20
69247;BME280;56358;56.328;43.992;2023-09-18T03:24:27;100991.88;;;11.43;64.10
69247;BME280;56358;56.328;43.992;2023-09-18T03:26:28;100981.97;;;11.43;64.36
69247;BME280;56358;56.328;43.992;2023-09-18T03:28:28;100957.53;;;11.35;64.39
69247;BME280;56358;56.328;43.992;2023-09-18T03:30:29;100985.28;;;11.47;64.12
69247;BME280;56358;56.328;43.992;2023-09-18T03:32:30;100980.53;;;11.50;64.51
69247;BME280;56358;56.328;43.992;2023-09-18T03:34:31;100972.34;;;11.52;64.27
69247;BME280;56358;56.328;43.992;2023-09-18T03:36:32;100977.66;;;11.53;64.01
69247;BME280;56358;56.328;43.992;2023-09-18T03:38:33;100905.63;;;11.10;63.94
69247;BME280;56358;56.328;43.992;2023-09-18T03:40:35;100973.13;;;11.54;64.04
69247;BME280;56358;56.328;43.992;2023-09-18T03:42:36;100963.34;;;11.53;63.97
69247;BME280;56358;56.328;43.992;2023-09-18T03:44:37;100977.66;;;11.53;64.45
69247;BME280;56358;56.328;43.992;2023-09-18T03:46:37;100893.81;;;11.13;64.32
69247;BME280;56358;56.328;43.992;2023-09-18T03:48:38;100966.78;;;11.55;64.04
69247;BME280;56358;56.328;43.992;2023-09-18T03:50:39;100964.81;;;11.57;64.02
69247;BME280;56358;56.328;43.992;2023-09-18T03:52:40;100959.25;;;11.60;64.53
69247;BME280;56358;56.328;43.992;2023-09-18T03:54:40;100950.56;;;11.56;63.97
69247;BME280;56358;56.328;43.992;2023-09-18T03:56:41;100968.66;;;11.66;64.24
69247;BME280;56358;56.328;43.992;2023-09-18T03:58:42;100957.81;;;11.67;64.44
69247;BME280;56358;56.328;43.992;2023-09-18T04:00:42;100920.63;;;11.50;63.80
69247;BME280;56358;56.328;43.992;2023-09-18T04:02:43;100949.75;;;11.67;64.06
69247;BME280;56358;56.328;43.992;2023-09-18T04:04:44;100954.66;;;11.73;64.03
69247;BME280;56358;56.328;43.992;2023-09-18T04:06:44;100951.97;;;11.73;64.04
69247;BME280;56358;56.328;43.992;2023-09-18T04:08:46;100942.44;;;11.69;63.99
69247;BME280;56358;56.328;43.992;2023-09-18T04:10:47;100945.28;;;11.79;63.52
69247;BME280;56358;56.328;43.992;2023-09-18T04:12:52;100927.91;;;11.72;63.64
69247;BME280;56358;56.328;43.992;2023-09-18T04:14:52;100941.38;;;11.83;63.84
69247;BME280;56358;56.328;43.992;2023-09-18T04:16:53;100883.75;;;11.52;63.58
69247;BME280;56358;56.328;43.992;2023-09-18T04:18:54;100880.22;;;11.51;63.80
69247;BME280;56358;56.328;43.992;2023-09-18T04:20:55;100942.75;;;11.89;63.54
69247;BME280;56358;56.328;43.992;2023-09-18T04:23:18;100938.34;;;11.88;63.63
69247;BME280;56358;56.328;43.992;2023-09-18T04:25:19;100941.03;;;11.88;63.43
69247;BME280;56358;56.328;43.992;2023-09-18T04:27:20;100899.56;;;11.68;63.62
69247;BME280;56358;56.328;43.992;2023-09-18T04:29:21;100872.94;;;11.53;63.65
69247;BME280;56358;56.328;43.992;2023-09-18T04:31:21;100961.97;;;11.96;63.60
69247;BME280;56358;56.328;43.992;2023-09-18T04:33:22;100952.81;;;11.98;63.61
69247;BME280;56358;56.328;43.992;2023-09-18T04:35:23;100953.66;;;11.99;63.26
69247;BME280;56358;56.328;43.992;2023-09-18T04:37:25;100939.34;;;11.87;63.33
69247;BME280;56358;56.328;43.992;2023-09-18T04:39:26;100936.28;;;11.91;63.70
69247;BME280;56358;56.328;43.992;2023-09-18T04:41:26;100951.44;;;11.93;63.81
69247;BME280;56358;56.328;43.992;2023-09-18T04:43:27;100965.94;;;12.03;63.86
69247;BME280;56358;56.328;43.992;2023-09-18T04:45:30;100960.31;;;12.06;63.74
69247;BME280;56358;56.328;43.992;2023-09-18T04:47:32;100956.53;;;12.09;63.52
69247;BME280;56358;56.328;43.992;2023-09-18T04:49:32;100952.75;;;12.11;63.37
69247;BME280;56358;56.328;43.992;2023-09-18T04:51:33;100951.66;;;12.14;63.62
69247;BME280;56358;56.328;43.992;2023-09-18T04:53:34;100824.91;;;11.37;63.93
69247;BME280;56358;56.328;43.992;2023-09-18T04:55:34;100888.00;;;11.79;63.99
69247;BME280;56358;56.328;43.992;2023-09-18T04:57:35;100873.84;;;11.77;63.44
69247;BME280;56358;56.328;43.992;2023-09-18T04:59:36;100945.44;;;12.24;63.17
69247;BME280;56358;56.328;43.992;2023-09-18T05:01:37;100914.63;;;12.17;63.50
69247;BME280;56358;56.328;43.992;2023-09-18T05:03:37;100946.72;;;12.43;63.34
69247;BME280;56358;56.328;43.992;2023-09-18T05:05:38;100932.13;;;12.46;63.37
69247;BME280;56358;56.328;43.992;2023-09-18T05:07:39;100951.22;;;12.43;63.19
69247;BME280;56358;56.328;43.992;2023-09-18T05:09:39;100946.72;;;12.43;63.26
69247;BME280;56358;56.328;43.992;2023-09-18T05:11:41;100920.41;;;12.35;63.16
69247;BME280;56358;56.328;43.992;2023-09-18T05:13:42;100926.88;;;12.44;63.02
69247;BME280;56358;56.328;43.992;2023-09-18T05:15:43;100959.19;;;12.55;63.22
69247;BME280;56358;56.328;43.992;2023-09-18T05:17:45;100943.03;;;12.55;62.93
69247;BME280;56358;56.328;43.992;2023-09-18T05:19:54;100878.97;;;12.15;63.38
69247;BME280;56358;56.328;43.992;2023-09-18T05:21:55;100873.09;;;12.10;63.10
69247;BME280;56358;56.328;43.992;2023-09-18T05:23:55;100945.25;;;12.50;63.33
69247;BME280;56358;56.328;43.992;2023-09-18T05:25:56;100880.03;;;12.01;64.14
69247;BME280;56358;56.328;43.992;2023-09-18T05:27:57;100884.81;;;12.09;63.98
69247;BME280;56358;56.328;43.992;2023-09-18T05:29:59;100946.44;;;12.35;64.06
69247;BME280;56358;56.328;43.992;2023-09-18T05:32:00;100961.25;;;12.40;64.24
69247;BME280;56358;56.328;43.992;2023-09-18T05:34:01;100940.47;;;12.43;64.45
69247;BME280;56358;56.328;43.992;2023-09-18T05:36:02;100941.34;;;12.43;64.94
69247;BME280;56358;56.328;43.992;2023-09-18T05:38:03;100943.03;;;12.55;64.71
69247;BME280;56358;56.328;43.992;2023-09-18T05:40:09;100943.16;;;12.65;64.22
69247;BME280;56358;56.328;43.992;2023-09-18T05:42:09;100843.16;;;12.15;64.74
69247;BME280;56358;56.328;43.992;2023-09-18T05:44:10;100925.66;;;12.71;64.20
69247;BME280;56358;56.328;43.992;2023-09-18T05:46:11;100936.31;;;12.84;64.10
69247;BME280;56358;56.328;43.992;2023-09-18T05:48:12;100919.78;;;12.88;63.73
69247;BME280;56358;56.328;43.992;2023-09-18T05:50:13;100903.78;;;12.87;63.88
69247;BME280;56358;56.328;43.992;2023-09-18T05:52:15;100929.19;;;13.05;63.85
69247;BME280;56358;56.328;43.992;2023-09-18T05:54:16;100914.97;;;13.15;63.46
69247;BME280;56358;56.328;43.992;2023-09-18T05:56:17;100927.34;;;13.17;63.07
69247;BME280;56358;56.328;43.992;2023-09-18T05:58:18;100924.03;;;13.25;63.06
69247;BME280;56358;56.328;43.992;2023-09-18T06:00:23;100913.50;;;13.22;63.06
69247;BME280;56358;56.328;43.992;2023-09-18T06:02:24;100925.88;;;13.36;63.32
69247;BME280;56358;56.328;43.992;2023-09-18T06:04:27;100923.13;;;13.47;63.10
69247;BME280;56358;56.328;43.992;2023-09-18T06:06:28;100917.84;;;13.57;62.74
69247;BME280;56358;56.328;43.992;2023-09-18T06:08:29;100931.84;;;13.72;62.22
69247;BME280;56358;56.328;43.992;2023-09-18T06:10:30;100928.38;;;13.81;61.87
69247;BME280;56358;56.328;43.992;2023-09-18T06:12:31;100929.28;;;13.91;61.82
69247;BME280;56358;56.328;43.992;2023-09-18T06:14:32;100920.19;;;14.04;61.53
69247;BME280;56358;56.328;43.992;2023-09-18T06:16:35;100923.53;;;14.17;61.16
69247;BME280;56358;56.328;43.992;2023-09-18T06:18:35;100927.53;;;14.23;60.62
69247;BME280;56358;56.328;43.992;2023-09-18T06:20:38;100847.00;;;13.87;60.69
69247;BME280;56358;56.328;43.992;2023-09-18T06:22:40;100908.72;;;14.33;60.48
69247;BME280;56358;56.328;43.992;2023-09-18T06:24:42;100918.69;;;14.42;60.65
69247;BME280;56358;56.328;43.992;2023-09-18T06:26:43;100827.09;;;14.00;60.18
69247;BME280;56358;56.328;43.992;2023-09-18T06:28:43;100874.38;;;14.35;60.29
69247;BME280;56358;56.328;43.992;2023-09-18T06:30:44;100898.19;;;14.61;60.14
69247;BME280;56358;56.328;43.992;2023-09-18T06:32:45;100876.38;;;14.42;60.29
69247;BME280;56358;56.328;43.992;2023-09-18T06:34:46;100894.13;;;14.66;60.19
69247;BME280;56358;56.328;43.992;2023-09-18T06:36:47;100865.97;;;14.59;60.44
69247;BME280;56358;56.328;43.992;2023-09-18T06:38:49;100883.50;;;14.74;59.57
69247;BME280;56358;56.328;43.992;2023-09-18T06:40:50;100882.81;;;14.72;59.90
69247;BME280;56358;56.328;43.992;2023-09-18T06:42:58;100882.22;;;14.69;59.57
69247;BME280;56358;56.328;43.992;2023-09-18T06:45:00;100881.09;;;14.71;59.84
69247;BME280;56358;56.328;43.992;2023-09-18T06:47:02;100875.69;;;14.71;59.88
69247;BME280;56358;56.328;43.992;2023-09-18T06:49:02;100884.06;;;14.68;59.93
69247;BME280;56358;56.328;43.992;2023-09-18T06:51:04;100849.47;;;14.52;60.36
69247;BME280;56358;56.328;43.992;2023-09-18T06:53:06;100877.94;;;14.66;60.17
69247;BME280;56358;56.328;43.992;2023-09-18T06:55:07;100849.03;;;14.57;59.85
69247;BME280;56358;56.328;43.992;2023-09-18T06:57:08;100873.59;;;14.75;60.33
69247;BME280;56358;56.328;43.992;2023-09-18T06:59:09;100857.63;;;14.72;60.14
69247;BME280;56358;56.328;43.992;2023-09-18T07:01:09;100822.19;;;14.55;60.29
69247;BME280;56358;56.328;43.992;2023-09-18T07:03:10;100870.34;;;14.91;60.35
69247;BME280;56358;56.328;43.992;2023-09-18T07:05:12;100869.78;;;14.97;59.95
69247;BME280;56358;56.328;43.992;2023-09-18T07:07:13;100869.63;;;14.99;59.95
69247;BME280;56358;56.328;43.992;2023-09-18T07:09:14;100875.81;;;15.20;59.25
69247;BME280;56358;56.328;43.992;2023-09-18T07:11:16;100859.47;;;15.32;58.97
69247;BME280;56358;56.328;43.992;2023-09-18T07:13:17;100865.28;;;15.47;59.05
69247;BME280;56358;56.328;43.992;2023-09-18T07:15:18;100858.34;;;15.54;58.23
69247;BME280;56358;56.328;43.992;2023-09-18T07:17:18;100859.31;;;15.63;57.99
69247;BME280;56358;56.328;43.992;2023-09-18T07:19:19;100866.13;;;15.76;57.52
69247;BME280;56358;56.328;43.992;2023-09-18T07:21:19;100867.88;;;15.87;57.24
69247;BME280;56358;56.328;43.992;2023-09-18T07:23:20;100872.97;;;15.90;57.13
69247;BME280;56358;56.328;43.992;2023-09-18T07:25:21;100864.44;;;15.85;57.28
69247;BME280;56358;56.328;43.992;2023-09-18T07:27:22;100856.88;;;15.79;57.25
69247;BME280;56358;56.328;43.992;2023-09-18T07:29:22;100819.63;;;15.53;57.46
69247;BME280;56358;56.328;43.992;2023-09-18T07:31:25;100883.34;;;15.95;57.56
69247;BME280;56358;56.328;43.992;2023-09-18T07:33:26;100866.72;;;15.80;57.22
69247;BME280;56358;56.328;43.992;2023-09-18T07:35:26;100900.72;;;15.92;56.63
69247;BME280;56358;56.328;43.992;2023-09-18T07:37:27;100884.06;;;15.97;57.17
69247;BME280;56358;56.328;43.992;2023-09-18T07:39:28;100898.00;;;16.02;57.29
69247;BME280;56358;56.328;43.992;2023-09-18T07:41:29;100846.25;;;15.87;57.16
69247;BME280;56358;56.328;43.992;2023-09-18T07:43:30;100896.53;;;16.18;56.98
69247;BME280;56358;56.328;43.992;2023-09-18T07:45:31;100866.78;;;16.18;56.98
69247;BME280;56358;56.328;43.992;2023-09-18T07:47:32;100876.16;;;16.33;56.04
69247;BME280;56358;56.328;43.992;2023-09-18T07:49:33;100871.16;;;16.29;56.46
69247;BME280;56358;56.328;43.992;2023-09-18T07:51:34;100882.66;;;16.40;56.17
69247;BME280;56358;56.328;43.992;2023-09-18T07:53:34;100877.81;;;16.44;55.96
69247;BME280;56358;56.328;43.992;2023-09-18T07:55:35;100873.50;;;16.51;56.33
69247;BME280;56358;56.328;43.992;2023-09-18T07:57:36;100874.38;;;16.52;55.90
69247;BME280;56358;56.328;43.992;2023-09-18T07:59:38;100885.31;;;16.60;55.69
69247;BME280;56358;56.328;43.992;2023-09-18T08:01:42;100872.19;;;16.65;55.55
69247;BME280;56358;56.328;43.992;2023-09-18T08:03:43;100872.03;;;16.67;55.02
69247;BME280;56358;56.328;43.992;2023-09-18T08:05:44;100866.69;;;16.75;54.82
69247;BME280;56358;56.328;43.992;2023-09-18T08:07:45;100849.50;;;16.66;54.31
69247;BME280;56358;56.328;43.992;2023-09-18T08:09:48;100860.81;;;16.80;54.81
69247;BME280;56358;56.328;43.992;2023-09-18T08:11:49;100867.78;;;16.82;54.54
69247;BME280;56358;56.328;43.992;2023-09-18T08:13:50;100866.94;;;16.82;54.39
69247;BME280;56358;56.328;43.992;2023-09-18T08:15:51;100862.94;;;16.86;54.84
69247;BME280;56358;56.328;43.992;2023-09-18T08:17:51;100864.06;;;16.93;54.47
69247;BME280;56358;56.328;43.992;2023-09-18T08:19:53;100862.63;;;16.99;54.25
69247;BME280;56358;56.328;43.992;2023-09-18T08:21:55;100856.88;;;17.02;54.13
69247;BME280;56358;56.328;43.992;2023-09-18T08:23:59;100861.00;;;17.06;53.67
69247;BME280;56358;56.328;43.992;2023-09-18T08:26:00;100788.94;;;16.67;53.85
69247;BME280;56358;56.328;43.992;2023-09-18T08:28:01;100848.75;;;17.02;53.90
69247;BME280;56358;56.328;43.992;2023-09-18T08:30:03;100835.81;;;16.96;53.79
69247;BME280;56358;56.328;43.992;2023-09-18T08:32:05;100779.13;;;16.66;53.81
69247;BME280;56358;56.328;43.992;2023-09-18T08:34:05;100849.47;;;17.04;54.00
69247;BME280;56358;56.328;43.992;2023-09-18T08:36:06;100794.59;;;16.74;53.85
69247;BME280;56358;56.328;43.992;2023-09-18T08:38:06;100844.97;;;17.13;53.67
69247;BME280;56358;56.328;43.992;2023-09-18T08:40:10;100846.53;;;17.15;53.71
69247;BME280;56358;56.328;43.992;2023-09-18T08:42:11;100849.16;;;17.25;53.83
69247;BME280;56358;56.328;43.992;2023-09-18T08:44:13;100849.47;;;17.40;53.27
69247;BME280;56358;56.328;43.992;2023-09-18T08:46:15;100840.72;;;17.64;52.34
69247;BME280;56358;56.328;43.992;2023-09-18T08:48:16;100830.63;;;17.92;51.73
69247;BME280;56358;56.328;43.992;2023-09-18T08:50:18;100840.72;;;18.43;50.87
69247;BME280;56358;56.328;43.992;2023-09-18T08:52:20;100835.50;;;18.92;50.08
69247;BME280;56358;56.328;43.992;2023-09-18T08:54:22;100842.38;;;19.46;48.49
69247;BME280;56358;56.328;43.992;2023-09-18T08:56:25;100785.47;;;19.61;47.13
69247;BME280;56358;56.328;43.992;2023-09-18T08:58:29;100831.09;;;20.23;46.31
69247;BME280;56358;56.328;43.992;2023-09-18T09:00:32;100829.56;;;20.77;45.52
69247;BME280;56358;56.328;43.992;2023-09-18T09:02:33;100781.06;;;20.72;44.27
69247;BME280;56358;56.328;43.992;2023-09-18T09:04:34;100771.63;;;20.83;44.03
69247;BME280;56358;56.328;43.992;2023-09-18T09:06:35;100840.84;;;21.29;44.38
69247;BME280;56358;56.328;43.992;2023-09-18T09:08:37;100833.97;;;21.09;44.12
69247;BME280;56358;56.328;43.992;2023-09-18T09:10:38;100832.16;;;21.02;44.37
69247;BME280;56358;56.328;43.992;2023-09-18T09:15:02;100831.19;;;20.55;45.07
69247;BME280;56358;56.328;43.992;2023-09-18T09:17:05;100837.78;;;20.69;44.88
69247;BME280;56358;56.328;43.992;2023-09-18T09:19:06;100834.28;;;20.43;45.58
69247;BME280;56358;56.328;43.992;2023-09-18T09:21:08;100844.72;;;20.23;45.93
69247;BME280;56358;56.328;43.992;2023-09-18T09:23:09;100778.81;;;19.64;45.96
69247;BME280;56358;56.328;43.992;2023-09-18T09:25:31;100842.56;;;19.94;46.33
69247;BME280;56358;56.328;43.992;2023-09-18T09:27:42;100832.69;;;19.76;46.68
69247;BME280;56358;56.328;43.992;2023-09-18T09:29:45;100852.94;;;19.66;46.22
69247;BME280;56358;56.328;43.992;2023-09-18T09:32:17;100858.88;;;19.36;46.56
69247;BME280;56358;56.328;43.992;2023-09-18T09:34:26;100854.25;;;19.12;47.26
69247;BME280;56358;56.328;43.992;2023-09-18T09:36:27;100837.84;;;18.87;47.82
69247;BME280;56358;56.328;43.992;2023-09-18T09:38:30;100861.06;;;18.82;48.53
69247;BME280;56358;56.328;43.992;2023-09-18T09:40:34;100858.34;;;18.73;49.10
69247;BME280;56358;56.328;43.992;2023-09-18T09:42:40;100839.81;;;18.69;48.92
69247;BME280;56358;56.328;43.992;2023-09-18T09:44:41;100859.56;;;19.38;48.14
69247;BME280;56358;56.328;43.992;2023-09-18T09:46:46;100827.25;;;19.68;46.55
69247;BME280;56358;56.328;43.992;2023-09-18T09:49:06;100864.66;;;20.72;44.58
69247;BME280;56358;56.328;43.992;2023-09-18T09:51:07;100804.81;;;20.47;44.15
69247;BME280;56358;56.328;43.992;2023-09-18T09:53:09;100858.41;;;20.95;44.24
69247;BME280;56358;56.328;43.992;2023-09-18T09:57:20;100850.50;;;20.29;44.65
69247;BME280;56358;56.328;43.992;2023-09-18T09:59:21;100865.69;;;19.98;45.66
69247;BME280;56358;56.328;43.992;2023-09-18T10:01:22;100724.41;;;18.73;46.38
69247;BME280;56358;56.328;43.992;2023-09-18T10:03:24;100876.88;;;19.29;47.57
69247;BME280;56358;56.328;43.992;2023-09-18T10:05:34;100866.44;;;19.00;48.20
69247;BME280;56358;56.328;43.992;2023-09-18T10:07:36;100847.66;;;18.80;48.49
69247;BME280;56358;56.328;43.992;2023-09-18T10:09:41;100860.72;;;18.76;49.07
69247;BME280;56358;56.328;43.992;2023-09-18T10:11:48;100862.56;;;18.68;49.55
69247;BME280;56358;56.328;43.992;2023-09-18T10:13:59;100859.97;;;18.58;49.85
69247;BME280;56358;56.328;43.992;2023-09-18T10:16:01;100844.13;;;18.45;50.13
69247;BME280;56358;56.328;43.992;2023-09-18T10:18:14;100874.16;;;18.43;50.04
69247;BME280;56358;56.328;43.992;2023-09-18T10:20:18;100782.47;;;17.95;50.04
69247;BME280;56358;56.328;43.992;2023-09-18T10:22:34;100790.31;;;17.98;50.36
69247;BME280;56358;56.328;43.992;2023-09-18T10:24:40;100821.19;;;18.05;50.54
69247;BME280;56358;56.328;43.992;2023-09-18T10:27:00;100858.47;;;18.29;50.96
69247;BME280;56358;56.328;43.992;2023-09-18T10:29:07;100845.75;;;18.30;51.03
69247;BME280;56358;56.328;43.992;2023-09-18T10:31:12;100858.41;;;18.47;50.88
69247;BME280;56358;56.328;43.992;2023-09-18T10:33:13;100866.41;;;18.57;50.45
69247;BME280;56358;56.328;43.992;2023-09-18T10:35:14;100864.72;;;18.56;50.63
69247;BME280;56358;56.328;43.992;2023-09-18T10:37:16;100806.47;;;18.07;50.78